Map

Track Data

SID SEASON NUMBER BASIN SUBBASIN NAME ISO_TIME NATURE LAT LON WMO_WIND WMO_PRES WMO_AGENCY TRACK_TYPE DIST2LAND LANDFALL IFLAG USA_AGENCY USA_ATCF_ID USA_LAT USA_LON USA_RECORD USA_STATUS USA_WIND USA_PRES USA_SSHS USA_R34_NE USA_R34_SE USA_R34_SW USA_R34_NW USA_R50_NE USA_R50_SE USA_R50_SW USA_R50_NW USA_R64_NE USA_R64_SE USA_R64_SW USA_R64_NW USA_POCI USA_ROCI USA_RMW USA_EYE TOKYO_LAT TOKYO_LON TOKYO_GRADE TOKYO_WIND TOKYO_PRES TOKYO_R50_DIR TOKYO_R50_LONG TOKYO_R50_SHORT TOKYO_R30_DIR TOKYO_R30_LONG TOKYO_R30_SHORT TOKYO_LAND CMA_LAT CMA_LON CMA_CAT CMA_WIND CMA_PRES HKO_LAT HKO_LON HKO_CAT HKO_WIND HKO_PRES NEWDELHI_LAT NEWDELHI_LON NEWDELHI_GRADE NEWDELHI_WIND NEWDELHI_PRES NEWDELHI_CI NEWDELHI_DP NEWDELHI_POCI REUNION_LAT REUNION_LON REUNION_TYPE REUNION_WIND REUNION_PRES REUNION_TNUM REUNION_CI REUNION_RMW REUNION_R34_NE REUNION_R34_SE REUNION_R34_SW REUNION_R34_NW REUNION_R50_NE REUNION_R50_SE REUNION_R50_SW REUNION_R50_NW REUNION_R64_NE REUNION_R64_SE REUNION_R64_SW REUNION_R64_NW BOM_LAT BOM_LON BOM_TYPE BOM_WIND BOM_PRES BOM_TNUM BOM_CI BOM_RMW BOM_R34_NE BOM_R34_SE BOM_R34_SW BOM_R34_NW BOM_R50_NE BOM_R50_SE BOM_R50_SW BOM_R50_NW BOM_R64_NE BOM_R64_SE BOM_R64_SW BOM_R64_NW BOM_ROCI BOM_POCI BOM_EYE BOM_POS_METHOD BOM_PRES_METHOD NADI_LAT NADI_LON NADI_CAT NADI_WIND NADI_PRES WELLINGTON_LAT WELLINGTON_LON WELLINGTON_WIND WELLINGTON_PRES DS824_LAT DS824_LON DS824_STAGE DS824_WIND DS824_PRES TD9636_LAT TD9636_LON TD9636_STAGE TD9636_WIND TD9636_PRES TD9635_LAT TD9635_LON TD9635_WIND TD9635_PRES TD9635_ROCI NEUMANN_LAT NEUMANN_LON NEUMANN_CLASS NEUMANN_WIND NEUMANN_PRES MLC_LAT MLC_LON MLC_CLASS MLC_WIND MLC_PRES USA_GUST BOM_GUST BOM_GUST_PER REUNION_GUST REUNION_GUST_PER USA_SEAHGT USA_SEARAD_NE USA_SEARAD_SE USA_SEARAD_SW USA_SEARAD_NW STORM_SPEED STORM_DIR
2018269N11220 2018 90 EP CP WALAKA 2018-09-26 06:00:00 NR 10.7000 -140.100 25 1008 hurdat_epa main 1859 1819 O_____________ hurdat_epa CP012018 10.7000 -140.100 DB 25 1008 -3 1009 180 50 7 302
2018269N11220 2018 90 EP CP WALAKA 2018-09-26 09:00:00 NR 10.8776 -140.387 main 1819 1779 P_____________ CP012018 10.8776 -140.387 DB 25 1008 -3 1009 180 50 7 304
2018269N11220 2018 90 EP CP WALAKA 2018-09-26 12:00:00 NR 11.1000 -140.700 25 1008 hurdat_epa main 1779 1733 O_____________ hurdat_epa CP012018 11.1000 -140.700 DB 25 1008 -3 1009 180 50 8 308
2018269N11220 2018 90 EP CP WALAKA 2018-09-26 15:00:00 NR 11.3924 -141.063 main 1724 1669 P_____________ CP012018 11.3924 -141.063 DB 25 1008 -3 1009 180 50 10 307
2018269N11220 2018 90 EP CP WALAKA 2018-09-26 18:00:00 NR 11.7000 -141.500 25 1008 hurdat_epa main 1669 1605 O_____________ hurdat_epa CP012018 11.7000 -141.500 DB 25 1008 -3 1009 180 50 11 303
2018269N11220 2018 90 EP CP WALAKA 2018-09-26 21:00:00 NR 11.9948 -141.997 main 1605 1538 P_____________ CP012018 11.9948 -141.997 DB 25 1008 -3 1009 180 50 12 295
2018269N11220 2018 90 EP CP WALAKA 2018-09-27 00:00:00 NR 12.2000 -142.600 25 1008 hurdat_epa main 1538 1476 O_____________ hurdat_epa CP012018 12.2000 -142.600 DB 25 1008 -3 1009 180 50 13 281
2018269N11220 2018 90 EP CP WALAKA 2018-09-27 03:00:00 NR 12.2375 -143.313 main 1476 1405 P_____________ CP012018 12.2375 -143.313 DB 25 1008 -3 1009 180 50 15 270
2018269N11220 2018 90 EP CP WALAKA 2018-09-27 06:00:00 NR 12.2000 -144.100 25 1008 hurdat_epa main 1405 1345 O_____________ hurdat_epa CP012018 12.2000 -144.100 DB 25 1008 -3 1009 180 50 15 269
2018269N11220 2018 90 EP CP WALAKA 2018-09-27 09:00:00 NR 12.2073 -144.892 main 1337 1270 P_____________ CP012018 12.2073 -144.892 DB 25 1008 -3 1009 180 50 16 270
2018269N11220 2018 90 EP CP WALAKA 2018-09-27 12:00:00 DS 12.2000 -145.700 25 1008 hurdat_epa main 1270 1206 O_____________ hurdat_epa CP012018 12.2000 -145.700 LO 25 1008 -3 1009 180 50 16 268
2018269N11220 2018 90 EP CP WALAKA 2018-09-27 15:00:00 DS 12.1498 -146.508 main 1213 1152 P_____________ CP012018 12.1498 -146.508 LO 25 1008 -3 1009 152 50 16 266
2018269N11220 2018 90 EP CP WALAKA 2018-09-27 18:00:00 DS 12.1000 -147.300 25 1008 hurdat_epa main 1152 1100 O_____________ hurdat_epa CP012018 12.1000 -147.300 LO 25 1008 -3 1010 125 50 15 268
2018269N11220 2018 90 EP CP WALAKA 2018-09-27 21:00:00 DS 12.0998 -148.065 main 1092 1043 P_____________ CP012018 12.0998 -148.065 LO 25 1007 -3 1009 125 50 15 270
2018269N11220 2018 90 EP CP WALAKA 2018-09-28 00:00:00 DS 12.1000 -148.800 25 1007 hurdat_epa main 1043 997 O_____________ hurdat_epa CP012018 12.1000 -148.800 LO 25 1007 -3 1009 125 50 14 268
2018269N11220 2018 90 EP CP WALAKA 2018-09-28 03:00:00 DS 12.0498 -149.515 main 1007 965 P_____________ CP012018 12.0498 -149.515 LO 25 1007 -3 1009 125 50 14 266
2018269N11220 2018 90 EP CP WALAKA 2018-09-28 06:00:00 DS 12.0000 -150.200 25 1007 hurdat_epa main 965 932 O_____________ hurdat_epa CP012018 12.0000 -150.200 LO 25 1007 -3 1009 125 50 13 268
2018269N11220 2018 90 EP CP WALAKA 2018-09-28 09:00:00 DS 11.9998 -150.857 main 927 893 P_____________ CP012018 11.9998 -150.857 LO 25 1007 -3 1009 125 50 13 270
2018269N11220 2018 90 EP CP WALAKA 2018-09-28 12:00:00 DS 12.0000 -151.500 25 1007 hurdat_epa main 893 863 O_____________ hurdat_epa CP012018 12.0000 -151.500 LO 25 1007 -3 1009 125 50 13 268
2018269N11220 2018 90 EP CP WALAKA 2018-09-28 15:00:00 DS 11.9573 -152.143 main 863 842 P_____________ CP012018 11.9573 -152.143 LO 25 1007 -3 1009 120 50 13 266
2018269N11220 2018 90 EP CP WALAKA 2018-09-28 18:00:00 DS 11.9000 -152.800 25 1007 hurdat_epa main 842 821 O_____________ hurdat_epa CP012018 11.9000 -152.800 LO 25 1007 -3 1009 115 50 13 265
2018269N11220 2018 90 EP CP WALAKA 2018-09-28 21:00:00 DS 11.8424 -153.493 main 828 810 P_____________ CP012018 11.8424 -153.493 LO 25 1007 -3 1009 115 50 14 266
2018269N11220 2018 90 EP CP WALAKA 2018-09-29 00:00:00 DS 11.8000 -154.200 25 1007 hurdat_epa main 810 799 O_____________ hurdat_epa CP012018 11.8000 -154.200 LO 25 1007 -3 1009 115 50 14 268
2018269N11220 2018 90 EP CP WALAKA 2018-09-29 03:00:00 DS 11.7998 -154.892 main 799 794 P_____________ CP012018 11.7998 -154.892 LO 25 1007 -3 1009 115 45 14 270
2018269N11220 2018 90 EP CP WALAKA 2018-09-29 06:00:00 DS 11.8000 -155.600 25 1007 hurdat_epa main 794 794 O_____________ hurdat_epa CP012018 11.8000 -155.600 LO 25 1007 -3 1009 115 40 14 268
2018269N11220 2018 90 EP CP WALAKA 2018-09-29 09:00:00 DS 11.7574 -156.343 main 797 797 P_____________ CP012018 11.7574 -156.343 LO 27 1006 -3 1009 120 37 15 266
2018269N11220 2018 90 EP CP WALAKA 2018-09-29 12:00:00 TS 11.7000 -157.100 30 1006 hurdat_epa main 819 819 O_____________ hurdat_epa CP012018 11.7000 -157.100 TD 30 1006 -1 1009 125 35 15 266
2018269N11220 2018 90 EP CP WALAKA 2018-09-29 15:00:00 TS 11.6424 -157.858 main 850 850 P_____________ CP012018 11.6424 -157.858 TD 32 1005 -1 1010 137 35 15 266
2018269N11220 2018 90 EP CP WALAKA 2018-09-29 18:00:00 TS 11.6000 -158.600 35 1005 hurdat_epa main 874 874 O_____________ hurdat_epa CP012018 11.6000 -158.600 TS 35 1005 0 40 20 35 1011 150 35 45 14 268
2018269N11220 2018 90 EP CP WALAKA 2018-09-29 21:00:00 TS 11.5922 -159.300 main 903 903 P_____________ CP012018 11.5922 -159.300 TS 37 1004 0 42 20 37 1010 162 35 14 270
2018269N11220 2018 90 EP CP WALAKA 2018-09-30 00:00:00 TS 11.6000 -160.000 40 1003 hurdat_epa main 938 938 O_____________ hurdat_epa CP012018 11.6000 -160.000 TS 40 1003 0 45 20 40 1010 175 35 45 12 90 50 75 14 270
2018269N11220 2018 90 EP CP WALAKA 2018-09-30 03:00:00 TS 11.5999 -160.743 main 977 977 P_____________ CP012018 11.5999 -160.743 TS 45 1001 0 57 25 50 1010 175 32 12 95 55 52 15 270
2018269N11220 2018 90 EP CP WALAKA 2018-09-30 06:00:00 TS 11.6000 -161.500 50 1000 hurdat_epa main 1026 1026 O_____________ hurdat_epa CP012018 11.6000 -161.500 TS 50 1000 0 70 30 60 30 20 1010 175 30 45 12 100 60 30 80 15 270
2018269N11220 2018 90 EP CP WALAKA 2018-09-30 09:00:00 TS 11.5998 -162.250 main 1074 1081 P_____________ CP012018 11.5998 -162.250 TS 55 999 0 75 35 65 32 25 1010 187 30 15 270
2018269N11220 2018 90 EP CP WALAKA 2018-09-30 12:00:00 TS 11.6000 -163.000 60 998 hurdat_epa main 1131 1131 O_____________ hurdat_epa CP012018 11.6000 -163.000 TS 60 998 0 80 40 15 70 35 10 30 1010 200 30 55 15 270
2018269N11220 2018 90 EP CP WALAKA 2018-09-30 15:00:00 TS 11.5923 -163.750 main 1192 1192 P_____________ CP012018 11.5923 -163.750 TS 62 996 0 85 40 17 75 37 15 30 1010 200 25 15 270
2018269N11220 2018 90 EP CP WALAKA 2018-09-30 18:00:00 TS 11.6000 -164.500 65 995 hurdat_epa main 1246 1246 O_____________ hurdat_epa CP012018 11.6000 -164.500 HU 65 995 1 90 40 20 80 40 20 15 30 15 15 1010 200 20 65 12 210 120 50 170 15 272
2018269N11220 2018 90 EP CP WALAKA 2018-09-30 21:00:00 TS 11.6425 -165.280 main 1302 1297 P_____________ CP012018 11.6425 -165.280 HU 70 990 1 95 50 35 85 42 30 25 35 17 17 1010 200 20 12 210 120 50 170 15 274
2018269N11220 2018 90 EP CP WALAKA 2018-10-01 00:00:00 TS 11.7000 -166.000 75 985 hurdat_epa main 1327 1327 O_____________ hurdat_epa CP012018 11.7000 -166.000 HU 75 985 1 100 60 50 90 45 40 35 40 20 20 20 20 1010 200 20 80 12 210 120 50 170 13 274
2018269N11220 2018 90 EP CP WALAKA 2018-10-01 03:00:00 TS 11.7423 -166.595 main 1360 1356 P_____________ CP012018 11.7423 -166.595 HU 82 977 1 105 65 50 100 47 37 35 45 22 20 20 22 1010 225 20 12 210 120 50 170 11 275
2018269N11220 2018 90 EP CP WALAKA 2018-10-01 06:00:00 TS 11.8000 -167.100 90 970 hurdat_epa main 1379 1379 O_____________ hurdat_epa CP012018 11.8000 -167.100 HU 90 970 2 110 70 50 110 50 35 35 50 25 20 20 25 1010 250 20 110 12 210 120 50 170 10 278
2018269N11220 2018 90 EP CP WALAKA 2018-10-01 09:00:00 TS 11.8699 -167.573 main 1401 1401 P_____________ CP012018 11.8699 -167.573 HU 100 962 3 115 75 60 115 52 37 37 52 27 22 22 27 1010 262 20 12 217 120 85 195 9 283
2018269N11220 2018 90 EP CP WALAKA 2018-10-01 12:00:00 TS 12.0000 -168.000 110 955 hurdat_epa main 1417 1415 O_____________ hurdat_epa CP012018 12.0000 -168.000 HU 110 955 3 120 80 70 120 55 40 40 55 30 25 25 30 1010 275 20 130 12 225 120 120 220 9 294
2018269N11220 2018 90 EP CP WALAKA 2018-10-01 15:00:00 TS 12.2349 -168.407 main 1426 1421 P_____________ CP012018 12.2349 -168.407 HU 120 945 4 130 100 75 120 62 50 45 57 37 30 27 32 1010 275 25 12 230 137 142 227 9 303
2018269N11220 2018 90 EP CP WALAKA 2018-10-01 18:00:00 TS 12.5000 -168.800 130 935 hurdat_epa main 1428 1427 O_____________ hurdat_epa CP012018 12.5000 -168.800 HU 130 935 4 140 120 80 120 70 60 50 60 45 35 30 35 1010 275 30 150 12 235 155 165 235 9 299
2018269N11220 2018 90 EP CP WALAKA 2018-10-01 21:00:00 TS 12.6926 -169.238 main 1440 1440 P_____________ CP012018 12.6926 -169.238 HU 135 928 4 150 120 80 120 75 65 55 65 45 35 30 35 1010 362 30 12 247 157 182 247 9 297
2018269N11220 2018 90 EP CP WALAKA 2018-10-02 00:00:00 TS 12.9000 -169.600 140 921 hurdat_epa main 1454 1445 O_____________ hurdat_epa CP012018 12.9000 -169.600 HU 140 921 5 160 120 80 120 80 70 60 70 45 35 30 35 1010 450 30 170 12 260 160 200 260 7 311
2018269N11220 2018 90 EP CP WALAKA 2018-10-02 03:00:00 TS 13.1774 -169.803 main 1445 1430 P_____________ CP012018 13.1774 -169.803 HU 140 921 5 160 120 80 120 80 70 60 70 45 35 30 35 1009 375 22 12 290 230 210 280 7 334
2018269N11220 2018 90 EP CP WALAKA 2018-10-02 06:00:00 TS 13.5000 -169.900 140 921 hurdat_epa main 1430 1407 O_____________ hurdat_epa CP012018 13.5000 -169.900 HU 140 921 5 160 120 80 120 80 70 60 70 45 35 30 35 1009 300 15 170 12 320 300 220 300 7 347
2018269N11220 2018 90 EP CP WALAKA 2018-10-02 09:00:00 TS 13.8275 -169.958 main 1415 1386 P_____________ CP012018 13.8275 -169.958 HU 137 924 5 160 130 85 125 80 70 60 70 42 35 27 35 1009 300 15 7 352
2018269N11220 2018 90 EP CP WALAKA 2018-10-02 12:00:00 TS 14.2000 -170.000 135 927 hurdat_epa main 1386 1365 O_____________ hurdat_epa CP012018 14.2000 -170.000 HU 135 927 4 160 140 90 130 80 70 60 70 40 35 25 35 1010 300 15 165 8 350
2018269N11220 2018 90 EP CP WALAKA 2018-10-02 15:00:00 TS 14.6275 -170.100 main 1365 1340 P_____________ CP012018 14.6275 -170.100 HU 132 931 4 160 140 90 130 80 70 60 70 37 35 25 32 1009 300 20 9 348
2018269N11220 2018 90 EP CP WALAKA 2018-10-02 18:00:00 TS 15.1000 -170.200 130 935 hurdat_epa main 1340 1322 O_____________ hurdat_epa CP012018 15.1000 -170.200 HU 130 935 4 160 140 90 130 80 70 60 70 35 35 25 30 1009 300 25 160 12 260 250 320 320 10 350
2018269N11220 2018 90 EP CP WALAKA 2018-10-02 21:00:00 TS 15.5700 -170.280 main 1316 1285 P_____________ CP012018 15.5700 -170.280 HU 125 937 4 160 140 95 130 75 65 55 65 35 35 25 30 1009 300 25 12 265 250 310 310 10 354
2018269N11220 2018 90 EP CP WALAKA 2018-10-03 00:00:00 TS 16.1000 -170.300 120 940 hurdat_epa main 1285 1241 O_____________ hurdat_epa CP012018 16.1000 -170.300 HU 120 940 4 160 140 100 130 70 60 50 60 35 35 25 30 1009 300 25 140 12 270 250 300 300 12 2
2018269N11220 2018 90 EP CP WALAKA 2018-10-03 03:00:00 TS 16.7200 -170.237 main 1241 1194 P_____________ CP012018 16.7200 -170.237 HU 117 943 4 160 140 100 130 70 60 50 60 35 35 25 30 1008 245 25 12 270 250 300 300 13 8
2018269N11220 2018 90 EP CP WALAKA 2018-10-03 06:00:00 TS 17.4000 -170.100 115 946 hurdat_epa main 1194 1145 O_____________ hurdat_epa CP012018 17.4000 -170.100 HU 115 946 4 160 140 100 130 70 60 50 60 35 35 25 30 1007 190 25 140 12 270 250 300 300 14 12
2018269N11220 2018 90 EP CP WALAKA 2018-10-03 09:00:00 TS 18.0699 -169.937 main 1141 1091 P_____________ CP012018 18.0699 -169.937 HU 120 942 4 170 155 100 135 85 75 55 60 40 37 27 35 1007 190 25 12 295 275 300 300 15 15
2018269N11220 2018 90 EP CP WALAKA 2018-10-03 12:00:00 TS 18.8000 -169.700 125 938 hurdat_epa main 1091 1032 O_____________ hurdat_epa CP012018 18.8000 -169.700 HU 125 938 4 180 170 100 140 100 90 60 60 45 40 30 40 1007 190 25 145 12 320 300 300 300 17 18
2018269N11220 2018 90 EP CP WALAKA 2018-10-03 15:00:00 TS 19.6275 -169.387 main 1032 967 P_____________ CP012018 19.6275 -169.387 HU 122 940 4 190 185 110 130 100 95 60 60 47 45 32 40 1008 200 25 12 325 315 300 330 18 21
2018269N11220 2018 90 EP CP WALAKA 2018-10-03 18:00:00 TS 20.5000 -169.000 120 942 hurdat_epa main 967 912 O_____________ hurdat_epa CP012018 20.5000 -169.000 HU 120 942 4 200 200 120 120 100 100 60 60 50 50 35 40 1009 210 25 145 12 330 330 300 360 19 24
2018269N11220 2018 90 EP CP WALAKA 2018-10-03 21:00:00 TS 21.3423 -168.587 main 912 855 P_____________ CP012018 21.3423 -168.587 HU 117 944 4 200 200 120 120 105 105 65 65 55 55 37 40 1009 215 27 12 330 330 315 370 19 26
2018269N11220 2018 90 EP CP WALAKA 2018-10-04 00:00:00 TS 22.2000 -168.100 115 946 hurdat_epa main 855 808 O_____________ hurdat_epa CP012018 22.2000 -168.100 HU 115 946 4 200 200 120 120 110 110 70 70 60 60 40 40 1009 220 30 140 12 330 330 330 380 20 27
2018269N11220 2018 90 EP CP WALAKA 2018-10-04 03:00:00 TS 23.0940 -167.607 main 809 756 P_____________ CP012018 23.0940 -167.607 HU 112 948 3 200 200 120 120 115 115 70 70 60 60 40 40 1009 225 30 12 330 330 345 385 21 32
2018269N11220 2018 90 EP CP WALAKA 2018-10-04 06:00:00 TS 24.0000 -166.900 110 950 hurdat_epa main 759 750 O_____________ hurdat_epa CP012018 24.0000 -166.900 HU 110 950 3 200 200 120 120 120 120 70 70 60 60 40 40 1010 230 30 135 12 330 330 360 390 23 36
2018269N11220 2018 90 EP CP WALAKA 2018-10-04 06:20:00 TS 24.1000 -166.800 110 950 hurdat_epa main 753 733 V_____________ hurdat_epa CP012018 24.1000 -166.800 HU 110 950 3 200 200 120 120 120 120 70 70 60 60 40 40 1010 230 30 12 330 330 360 390 21 30
2018269N11220 2018 90 EP CP WALAKA 2018-10-04 09:00:00 TS 24.9217 -166.310 main 737 737 P_____________ CP012018 24.9217 -166.310 HU 105 951 3 200 200 120 120 120 120 70 70 60 60 40 40 1008 220 30 12 330 330 360 390 20 17
2018269N11220 2018 90 EP CP WALAKA 2018-10-04 12:00:00 TS 25.9000 -166.200 100 954 hurdat_epa main 782 782 O_____________ hurdat_epa CP012018 25.9000 -166.200 HU 100 954 3 200 200 120 120 120 120 70 70 60 60 40 40 1007 210 30 120 12 330 330 360 390 21 5
2018269N11220 2018 90 EP CP WALAKA 2018-10-04 15:00:00 TS 26.9642 -166.112 main 847 847 P_____________ CP012018 26.9642 -166.112 HU 92 961 2 200 200 120 120 120 120 70 70 60 60 40 40 1008 220 30 12 315 330 365 380 21 358
2018269N11220 2018 90 EP CP WALAKA 2018-10-04 18:00:00 TS 28.0000 -166.300 85 969 hurdat_epa main 935 935 O_____________ hurdat_epa CP012018 28.0000 -166.300 HU 85 969 2 200 200 120 120 120 120 70 70 60 60 40 40 1010 230 30 105 12 300 330 370 370 21 342
2018269N11220 2018 90 EP CP WALAKA 2018-10-04 21:00:00 TS 28.9483 -166.845 main 1040 1040 P_____________ CP012018 28.9483 -166.845 HU 75 975 1 190 190 115 115 110 110 60 60 50 50 32 32 1009 240 30 12 315 377 360 347 20 328
2018269N11220 2018 90 EP CP WALAKA 2018-10-05 00:00:00 TS 29.7000 -167.500 65 981 hurdat_epa main 1151 1151 O_____________ hurdat_epa CP012018 29.7000 -167.500 HU 65 981 1 180 180 110 110 100 100 50 50 40 40 25 25 1009 250 30 85 12 330 425 350 325 16 321
2018269N11220 2018 90 EP CP WALAKA 2018-10-05 03:00:00 TS 30.1973 -167.991 main 1225 1225 P_____________ CP012018 30.1973 -167.991 HU 62 983 0 165 165 105 105 95 95 45 45 1009 262 30 12 330 425 350 325 11 319
2018269N11220 2018 90 EP CP WALAKA 2018-10-05 06:00:00 TS 30.5000 -168.300 60 985 hurdat_epa main 1269 1269 O_____________ hurdat_epa CP012018 30.5000 -168.300 TS 60 985 0 150 150 100 100 90 90 40 40 1009 275 30 75 12 330 425 350 325 6 326
2018269N11220 2018 90 EP CP WALAKA 2018-10-05 09:00:00 TS 30.6923 -168.375 main 1292 1292 P_____________ CP012018 30.6923 -168.375 TS 57 986 0 145 145 95 95 85 85 37 37 1008 262 30 12 435 427 270 312 4 0
2018269N11220 2018 90 EP CP WALAKA 2018-10-05 12:00:00 TS 30.9000 -168.300 55 987 hurdat_epa main 1301 1301 O_____________ hurdat_epa CP012018 30.9000 -168.300 TS 55 987 0 140 140 90 90 80 80 35 35 1007 250 30 65 12 540 430 190 300 6 8
2018269N11220 2018 90 EP CP WALAKA 2018-10-05 15:00:00 TS 31.3197 -168.274 main 1334 1334 P_____________ CP012018 31.3197 -168.274 TS 52 988 0 125 140 90 85 70 80 1007 250 35 12 535 430 190 290 9 11
2018269N11220 2018 90 EP CP WALAKA 2018-10-05 18:00:00 TS 31.8000 -168.100 50 989 hurdat_epa main 1364 1364 O_____________ hurdat_epa CP012018 31.8000 -168.100 TS 50 989 0 110 140 90 80 60 80 1007 250 40 55 12 530 430 190 280 10 30
2018269N11220 2018 90 EP CP WALAKA 2018-10-05 21:00:00 TS 32.2001 -167.675 main 1376 1370 P_____________ CP012018 32.2001 -167.675 TS 47 990 0 105 135 90 80 1007 250 42 12 530 430 190 280 12 47
2018269N11220 2018 90 EP CP WALAKA 2018-10-06 00:00:00 TS 32.6000 -167.100 45 992 hurdat_epa main 1380 1375 O_____________ hurdat_epa CP012018 32.6000 -167.100 TS 45 992 0 100 130 90 80 1007 250 45 50 12 530 430 190 280 12 51
2018269N11220 2018 90 EP CP WALAKA 2018-10-06 03:00:00 TS 32.9897 -166.528 main 1388 1388 P_____________ CP012018 32.9897 -166.528 TS 45 992 0 85 135 90 1005 185 45 12 505 405 180 265 14 48
2018269N11220 2018 90 EP CP WALAKA 2018-10-06 06:00:00 TS 33.5000 -165.900 45 992 hurdat_epa main 1410 1410 O_____________ hurdat_epa CP012018 33.5000 -165.900 TS 45 992 0 70 140 90 1003 120 45 50 12 480 380 170 250 17 41
2018269N11220 2018 90 EP CP WALAKA 2018-10-06 09:00:00 TS 34.2323 -165.222 main 1453 1453 P_____________ CP012018 34.2323 -165.222 TS 45 993 0 70 145 90 1003 120 45 12 500 370 200 250 20 36
2018269N11220 2018 90 EP CP WALAKA 2018-10-06 12:00:00 ET 35.1000 -164.500 45 994 hurdat_epa main 1524 1524 O_____________ hurdat_epa CP012018 35.1000 -164.500 EX 45 994 -4 70 150 90 1004 120 45 55 12 520 360 230 250 20 34
2018269N11220 2018 90 EP CP WALAKA 2018-10-06 15:00:00 ET 35.9084 -163.818 main 1590 1590 P_____________ CP012018 35.9084 -163.818 EX 45 996 -4 95 150 105 1004 120 47 22 34
2018269N11220 2018 90 EP CP WALAKA 2018-10-06 18:00:00 ET 36.9000 -163.000 45 998 hurdat_epa main 1681 1681 O_____________ hurdat_epa CP012018 36.9000 -163.000 EX 45 998 -4 120 150 120 1004 120 50 27 36
2018269N11220 2018 90 EP CP WALAKA 2018-10-06 21:00:00 ET 38.0842 -161.854 main 1727 1599 P_____________ CP012018 38.0842 -161.854 EX 45 1001 -4 180 210 180 1006 120 55 34 34
2018269N11220 2018 90 EP CP WALAKA 2018-10-07 00:00:00 ET 39.7000 -160.600 45 1004 hurdat_epa main 1591 1383 O_____________ hurdat_epa CP012018 39.7000 -160.600 EX 45 1004 -4 240 270 240 1008 120 60 43 25
2018269N11220 2018 90 EP CP WALAKA 2018-10-07 03:00:00 ET 42.0019 -159.507 main 1376 1179 P_____________ CP012018 42.0019 -159.507 EX 45 1004 -4 285 285 195 1008 120 60 50 20
2018269N11220 2018 90 EP CP WALAKA 2018-10-07 06:00:00 ET 44.4000 -158.300 45 1004 hurdat_epa main 1173 1043 O_____________ hurdat_epa CP012018 44.4000 -158.300 EX 45 1004 -4 330 300 150 1008 120 60 47 24
2018269N11220 2018 90 EP CP WALAKA 2018-10-07 09:00:00 ET 46.2831 -156.808 main 1036 926 P_____________ CP012018 46.2831 -156.808 EX 40 1006 -4 300 285 1009 120 60 41 33
2018269N11220 2018 90 EP CP WALAKA 2018-10-07 12:00:00 ET 47.8000 -155.100 35 1008 hurdat_epa main 918 O_____________ hurdat_epa CP012018 47.8000 -155.100 EX 35 1008 -4 270 270 1010 120 60 38 37

About IBTrACS Database

This database is a web-friendly format of International Best Track Archive for Climate Stewardship (IBTrACS), a global best track data archive curated by NOAA dating back to 1842.

Updated: 2021-12-08